San Martin, Argentina
Current Conditions -  °F | °C
As of 5:00 PM on Friday 19 Dec 2014 (Local Time) from SAME Reporting Station
Few Clouds Few Clouds  
Wind Chill: 95°   Ceiling: Unl
Heat Index: 95°   Visibility: 6mi
Dew Point: 50°   Wind: 7mph
Humidity: 22%   Direction: 140°SE
Pressure: 29.47"   Gusts: NA
Location:  33.07°S, 68.49°W
Report Text: SAME 192000Z 14006KT 9999 FEW040 35/10 Q0998
Loading
Personal Weather Stations






























Interactive Weather Map New forecast layout! Learn more

10-Day Weather Forecast

Advertisements
Track Severe Weather on mobile